Time;durP1;ratioP1;P1;durP2;ratioP2;P2;SDS_P1;SDS_P2;PMS_P1;PMS_P2;Temp;Humidity;BMP_temperature;BMP_pressure;BME280_temperature;BME280_humidity;BME280_pressure;Samples;Min_cycle;Max_cycle;Signal;HPM_P1;HPM_P2
2023/08/03 00:00:23;;;;;;;6.40;1.90;;;13.90;99.90;;;;;;5016242;28;20121;-93
2023/08/03 00:02:49;;;;;;;6.70;2.17;;;13.90;99.90;;;;;;5017568;28;20033;-94
2023/08/03 00:05:17;;;;;;;7.95;1.92;;;13.80;99.90;;;;;;5018721;28;20085;-94
2023/08/03 00:07:46;;;;;;;7.60;2.28;;;13.80;99.90;;;;;;5016013;28;20030;-94
2023/08/03 00:10:12;;;;;;;4.93;1.83;;;13.80;99.90;;;;;;5015981;28;20029;-94
2023/08/03 00:12:38;;;;;;;15.65;2.05;;;13.80;99.90;;;;;;5015881;28;20052;-93
2023/08/03 00:15:04;;;;;;;4.40;1.77;;;13.70;99.90;;;;;;5015736;28;20025;-95
2023/08/03 00:17:30;;;;;;;9.77;2.35;;;13.70;99.90;;;;;;5015833;28;20054;-94
2023/08/03 00:19:55;;;;;;;6.45;1.80;;;13.70;99.90;;;;;;5016697;28;20490;-93
2023/08/03 00:22:21;;;;;;;7.47;1.80;;;13.70;99.90;;;;;;5017256;28;20049;-93
2023/08/03 00:24:48;;;;;;;4.95;1.83;;;13.70;99.90;;;;;;5036799;28;20124;-94
2023/08/03 00:27:14;;;;;;;8.88;2.05;;;13.60;99.90;;;;;;5036509;28;20014;-94
2023/08/03 00:29:40;;;;;;;6.13;1.75;;;13.60;99.90;;;;;;5026985;28;20026;-94
2023/08/03 00:32:06;;;;;;;6.50;1.98;;;13.60;99.90;;;;;;5015782;28;20499;-95
2023/08/03 00:34:32;;;;;;;7.88;1.92;;;13.60;99.90;;;;;;5015568;28;20027;-94
2023/08/03 00:36:58;;;;;;;6.80;2.53;;;13.50;99.90;;;;;;5016112;28;20482;-94
2023/08/03 00:39:24;;;;;;;12.48;2.60;;;13.50;99.90;;;;;;5015173;28;20030;-95
2023/08/03 00:41:51;;;;;;;7.70;2.10;;;13.50;99.90;;;;;;5015793;28;20022;-96
2023/08/03 00:44:17;;;;;;;6.72;2.05;;;13.50;99.90;;;;;;5017705;28;20435;-94
2023/08/03 00:46:43;;;;;;;6.65;1.70;;;13.50;99.90;;;;;;5015129;28;20030;-95
2023/08/03 00:49:09;;;;;;;7.75;3.03;;;13.50;99.90;;;;;;5015055;28;20037;-94
2023/08/03 00:51:34;;;;;;;7.25;2.00;;;13.50;99.90;;;;;;5016003;28;20026;-94
2023/08/03 00:54:00;;;;;;;3.50;1.67;;;13.50;99.90;;;;;;5015482;28;20068;-94
2023/08/03 00:56:26;;;;;;;6.75;2.03;;;13.50;99.90;;;;;;5015530;28;20030;-94
2023/08/03 00:58:52;;;;;;;5.20;2.10;;;13.40;99.90;;;;;;5015375;28;20029;-94
2023/08/03 01:01:17;;;;;;;7.53;1.98;;;13.40;99.90;;;;;;5014937;28;20026;-94
2023/08/03 01:03:43;;;;;;;11.43;2.08;;;13.40;99.90;;;;;;5014925;28;20048;-94
2023/08/03 01:06:09;;;;;;;7.00;2.55;;;13.40;99.90;;;;;;5014848;28;20033;-94
2023/08/03 01:08:35;;;;;;;8.75;2.00;;;13.40;99.90;;;;;;5014478;28;20057;-95
2023/08/03 01:11:01;;;;;;;2.55;1.80;;;13.40;99.90;;;;;;5014139;28;20018;-93
2023/08/03 01:13:27;;;;;;;9.65;2.03;;;13.40;99.90;;;;;;5014211;28;20380;-94
2023/08/03 01:15:52;;;;;;;8.90;2.15;;;13.30;99.90;;;;;;5014709;28;20018;-93
2023/08/03 01:18:18;;;;;;;6.75;1.90;;;13.30;99.90;;;;;;5012624;28;20030;-94
2023/08/03 01:20:44;;;;;;;8.15;2.10;;;13.30;99.90;;;;;;5014004;28;20188;-93
2023/08/03 01:23:10;;;;;;;5.88;2.78;;;13.30;99.90;;;;;;5013683;28;20129;-94
2023/08/03 01:25:36;;;;;;;5.25;1.77;;;13.30;99.90;;;;;;5013843;28;20463;-95
2023/08/03 01:28:05;;;;;;;3.65;2.20;;;13.20;99.90;;;;;;5014062;28;20030;-93
2023/08/03 01:30:31;;;;;;;4.97;1.88;;;13.20;99.90;;;;;;5014150;28;20054;-95
2023/08/03 01:32:58;;;;;;;10.45;1.98;;;13.20;99.90;;;;;;5013971;28;20022;-94
2023/08/03 01:35:24;;;;;;;5.28;1.80;;;13.20;99.90;;;;;;5013942;28;20284;-94
2023/08/03 01:37:50;;;;;;;5.68;1.80;;;13.10;99.90;;;;;;5013633;28;20272;-93
2023/08/03 01:40:18;;;;;;;4.32;2.10;;;13.10;99.90;;;;;;5013891;28;20026;-94
2023/08/03 01:42:44;;;;;;;6.22;2.03;;;13.10;99.90;;;;;;5014106;28;20128;-93
2023/08/03 01:45:10;;;;;;;4.80;2.15;;;13.10;99.90;;;;;;5014224;28;20120;-94
2023/08/03 01:47:35;;;;;;;6.95;2.53;;;13.00;99.90;;;;;;5014299;28;20483;-93
2023/08/03 01:50:01;;;;;;;7.75;2.25;;;13.00;99.90;;;;;;5014858;28;20026;-94
2023/08/03 01:52:27;;;;;;;5.75;2.53;;;13.00;99.90;;;;;;5020414;28;20129;-92
2023/08/03 01:54:53;;;;;;;4.38;1.85;;;12.90;99.90;;;;;;5019810;28;20458;-94
2023/08/03 01:57:19;;;;;;;4.25;2.15;;;12.90;99.90;;;;;;5019902;28;20026;-95
2023/08/03 01:59:45;;;;;;;6.10;2.15;;;12.90;99.90;;;;;;5020180;28;20026;-95
2023/08/03 02:02:12;;;;;;;4.25;2.33;;;12.90;99.90;;;;;;5020016;28;20026;-94
2023/08/03 02:04:38;;;;;;;7.22;2.45;;;12.80;99.90;;;;;;5031018;28;20029;-93
2023/08/03 02:07:16;;;;;;;4.70;2.13;;;12.80;99.90;;;;;;5029807;28;20022;-94
2023/08/03 02:09:42;;;;;;;5.93;2.38;;;12.80;99.90;;;;;;5029151;28;20097;-94
2023/08/03 02:12:08;;;;;;;6.32;2.28;;;12.70;99.90;;;;;;5020892;28;20030;-95
2023/08/03 02:14:34;;;;;;;5.72;2.40;;;12.70;99.90;;;;;;5015076;28;20041;-93
2023/08/03 02:17:00;;;;;;;5.22;2.00;;;12.70;99.90;;;;;;5013494;28;20067;-94
2023/08/03 02:19:25;;;;;;;7.78;2.25;;;12.70;99.90;;;;;;5013755;28;20061;-95
2023/08/03 02:21:51;;;;;;;3.80;2.22;;;12.70;99.90;;;;;;5013349;28;20033;-93
2023/08/03 02:24:17;;;;;;;3.40;2.03;;;12.70;99.90;;;;;;5012830;28;20050;-95
2023/08/03 02:26:43;;;;;;;2.70;1.77;;;12.60;99.90;;;;;;5013064;28;20022;-94
2023/08/03 02:29:08;;;;;;;9.48;2.15;;;12.60;99.90;;;;;;5012890;28;20038;-95
2023/08/03 02:31:34;;;;;;;5.68;2.33;;;12.60;99.90;;;;;;5013024;28;20467;-94
2023/08/03 02:34:00;;;;;;;6.28;2.35;;;12.50;99.90;;;;;;5012585;28;20022;-94
2023/08/03 02:36:26;;;;;;;7.38;1.95;;;12.50;99.90;;;;;;5012938;28;20033;-94
2023/08/03 02:38:51;;;;;;;5.82;2.78;;;12.50;99.90;;;;;;5012650;28;20029;-94
2023/08/03 02:41:17;;;;;;;6.25;2.30;;;12.50;99.90;;;;;;5012822;28;20026;-96
2023/08/03 02:43:43;;;;;;;4.57;2.70;;;12.50;99.90;;;;;;5014368;28;20037;-94
2023/08/03 02:46:08;;;;;;;6.65;2.47;;;12.50;99.90;;;;;;5016982;28;20125;-93
2023/08/03 02:48:34;;;;;;;5.40;2.20;;;12.50;99.90;;;;;;5012843;28;20034;-93
2023/08/03 02:51:00;;;;;;;9.05;2.25;;;12.50;99.90;;;;;;5012817;28;20388;-94
2023/08/03 02:53:25;;;;;;;6.88;2.33;;;12.50;99.90;;;;;;5012467;28;20038;-94
2023/08/03 02:55:52;;;;;;;6.22;2.47;;;12.40;99.90;;;;;;5012491;28;20172;-94
2023/08/03 02:58:17;;;;;;;4.43;2.38;;;12.40;99.90;;;;;;5012626;28;20026;-94
2023/08/03 03:00:43;;;;;;;5.40;2.40;;;12.30;99.90;;;;;;5012597;28;20037;-95
2023/08/03 03:03:09;;;;;;;6.97;2.45;;;12.30;99.90;;;;;;5012557;28;20034;-94
2023/08/03 03:05:34;;;;;;;3.75;2.20;;;12.30;99.90;;;;;;5013086;28;20073;-93
2023/08/03 03:08:00;;;;;;;4.45;2.30;;;12.20;99.90;;;;;;5016343;28;20030;-93
2023/08/03 03:10:26;;;;;;;9.15;2.63;;;12.20;99.90;;;;;;5016763;28;20032;-94
2023/08/03 03:12:51;;;;;;;6.38;2.60;;;12.20;99.90;;;;;;5016318;28;20570;-93
2023/08/03 03:15:17;;;;;;;7.00;2.58;;;12.10;99.90;;;;;;5016643;28;20036;-95
2023/08/03 03:17:43;;;;;;;5.95;2.28;;;12.10;99.90;;;;;;5016281;28;20049;-95
2023/08/03 03:20:10;;;;;;;3.60;2.10;;;12.10;99.90;;;;;;5016239;28;20030;-94
2023/08/03 03:22:36;;;;;;;4.07;2.20;;;12.10;99.90;;;;;;5016252;28;20038;-93
2023/08/03 03:25:05;;;;;;;8.63;2.20;;;12.10;99.90;;;;;;5016068;28;20037;-93
2023/08/03 03:27:31;;;;;;;5.03;2.30;;;12.00;99.90;;;;;;5016028;28;20132;-95
2023/08/03 03:29:57;;;;;;;6.97;2.40;;;12.00;99.90;;;;;;5016000;28;20022;-93
2023/08/03 03:32:22;;;;;;;6.00;2.42;;;12.00;99.90;;;;;;5016288;28;20034;-94
2023/08/03 03:34:48;;;;;;;5.95;1.98;;;12.00;99.90;;;;;;5016299;28;20053;-93
2023/08/03 03:37:14;;;;;;;6.38;2.47;;;12.00;99.90;;;;;;5016059;28;20089;-93
2023/08/03 03:39:40;;;;;;;4.70;2.03;;;11.90;99.90;;;;;;5018891;28;20034;-94
2023/08/03 03:42:06;;;;;;;4.88;2.13;;;11.80;99.90;;;;;;5018294;28;20022;-94
2023/08/03 03:44:32;;;;;;;3.40;2.10;;;11.80;99.90;;;;;;5016596;28;20030;-93
2023/08/03 03:46:58;;;;;;;5.35;2.20;;;11.80;99.90;;;;;;5028418;28;20038;-93
2023/08/03 03:49:24;;;;;;;8.07;2.35;;;11.80;99.90;;;;;;5035322;28;20045;-92
2023/08/03 03:51:49;;;;;;;7.40;2.33;;;11.80;99.90;;;;;;5036083;28;20033;-93
2023/08/03 03:54:15;;;;;;;5.50;2.00;;;11.80;99.90;;;;;;5018849;28;20124;-94
2023/08/03 03:56:41;;;;;;;6.93;2.28;;;11.80;99.90;;;;;;5016004;28;20121;-94
2023/08/03 03:59:06;;;;;;;4.72;2.30;;;11.80;99.90;;;;;;5015422;28;20022;-93
2023/08/03 04:01:32;;;;;;;5.90;2.40;;;11.80;99.90;;;;;;5015232;28;20037;-93
2023/08/03 04:03:58;;;;;;;4.82;2.10;;;11.80;99.90;;;;;;5015241;28;20030;-93
2023/08/03 04:06:23;;;;;;;3.17;2.20;;;11.80;99.90;;;;;;5015339;28;20025;-93
2023/08/03 04:08:49;;;;;;;8.52;2.58;;;11.70;99.90;;;;;;5015268;28;20034;-94
2023/08/03 04:11:15;;;;;;;4.55;2.25;;;11.70;99.90;;;;;;5015510;28;20057;-92
2023/08/03 04:13:40;;;;;;;4.15;1.95;;;11.60;99.90;;;;;;5015290;28;20113;-93
2023/08/03 04:16:06;;;;;;;3.75;2.20;;;11.60;99.90;;;;;;5015129;28;20026;-93
2023/08/03 04:18:31;;;;;;;3.90;2.00;;;11.60;99.90;;;;;;5015690;28;20041;-93
2023/08/03 04:20:57;;;;;;;7.90;2.45;;;11.50;99.90;;;;;;5015387;28;20022;-93
2023/08/03 04:23:23;;;;;;;10.63;2.40;;;11.50;99.90;;;;;;5015320;28;20076;-93
2023/08/03 04:25:49;;;;;;;7.22;3.53;;;11.50;99.90;;;;;;5015763;28;20034;-94
2023/08/03 04:28:14;;;;;;;5.70;2.47;;;11.50;99.90;;;;;;5015326;28;20032;-94
2023/08/03 04:30:40;;;;;;;5.32;2.00;;;11.50;99.90;;;;;;5015312;28;20542;-94
2023/08/03 04:33:05;;;;;;;5.25;2.38;;;11.50;99.90;;;;;;5015153;28;20022;-95
2023/08/03 04:35:31;;;;;;;4.45;2.28;;;11.50;99.90;;;;;;5015316;28;20125;-95
2023/08/03 04:38:00;;;;;;;2.80;1.95;;;11.50;99.90;;;;;;5015142;28;20029;-94
2023/08/03 04:40:25;;;;;;;4.63;2.28;;;11.40;99.90;;;;;;5014731;28;20034;-93
2023/08/03 04:42:51;;;;;;;4.03;2.25;;;11.40;99.90;;;;;;5014914;28;20153;-95
2023/08/03 04:45:16;;;;;;;4.22;2.28;;;11.40;99.90;;;;;;5014621;28;20018;-94
2023/08/03 04:47:42;;;;;;;4.38;2.28;;;11.30;99.90;;;;;;5014788;28;20026;-95
2023/08/03 04:50:08;;;;;;;5.78;2.35;;;11.30;99.90;;;;;;5034609;28;20087;-93
2023/08/03 04:52:34;;;;;;;3.63;2.28;;;11.30;99.90;;;;;;5037736;28;20034;-94
2023/08/03 04:54:59;;;;;;;3.75;2.30;;;11.30;99.90;;;;;;5034871;28;20092;-94
2023/08/03 04:57:25;;;;;;;9.73;2.33;;;11.30;99.90;;;;;;5015592;28;20499;-94
2023/08/03 04:59:50;;;;;;;19.85;2.85;;;11.30;99.90;;;;;;5018997;28;20515;-95
2023/08/03 05:02:16;;;;;;;6.47;2.35;;;11.30;99.90;;;;;;5020651;28;20490;-94
2023/08/03 05:04:42;;;;;;;4.68;2.35;;;11.30;99.90;;;;;;5019000;28;20039;-94
2023/08/03 05:07:07;;;;;;;8.70;2.72;;;11.30;99.90;;;;;;5017930;28;20025;-94
2023/08/03 05:09:33;;;;;;;2.42;2.22;;;11.20;99.90;;;;;;5017052;28;20036;-94
2023/08/03 05:11:59;;;;;;;7.53;2.47;;;11.20;99.90;;;;;;5014717;28;20121;-93
2023/08/03 05:14:24;;;;;;;4.53;2.50;;;11.30;99.90;;;;;;5014815;28;20061;-94
2023/08/03 05:16:50;;;;;;;5.25;2.80;;;11.30;99.90;;;;;;5014542;28;20119;-93
2023/08/03 05:19:15;;;;;;;8.23;2.10;;;11.30;99.90;;;;;;5014257;28;20033;-93
2023/08/03 05:21:41;;;;;;;7.65;2.60;;;11.30;99.90;;;;;;5014099;28;20383;-94
2023/08/03 05:24:07;;;;;;;4.80;2.25;;;11.30;99.90;;;;;;5014006;28;20553;-94
2023/08/03 05:26:34;;;;;;;4.85;2.50;;;11.40;99.90;;;;;;5015113;28;20487;-94
2023/08/03 05:28:59;;;;;;;3.72;2.25;;;11.40;99.90;;;;;;5025821;28;20056;-94
2023/08/03 05:31:26;;;;;;;6.47;2.35;;;11.40;99.90;;;;;;5034556;28;20089;-94
2023/08/03 05:33:53;;;;;;;3.85;2.50;;;11.40;99.90;;;;;;5033023;28;20026;-94
2023/08/03 05:36:19;;;;;;;6.18;2.67;;;11.50;99.90;;;;;;5019113;28;20025;-93
2023/08/03 05:38:45;;;;;;;4.60;2.40;;;11.50;99.90;;;;;;5015247;28;20040;-94
2023/08/03 05:41:15;;;;;;;4.55;2.45;;;11.60;99.90;;;;;;5014457;28;20029;-95
2023/08/03 05:43:41;;;;;;;;;;;11.60;99.90;;;;;;5015672;28;20042;-94
2023/08/03 05:46:12;;;;;;;2.88;2.03;;;11.70;99.90;;;;;;5016254;28;19909;-94
2023/08/03 05:48:38;;;;;;;6.22;2.55;;;11.70;99.90;;;;;;5016477;28;20471;-93
2023/08/03 05:51:03;;;;;;;4.63;2.80;;;11.70;99.90;;;;;;5014312;28;20083;-94
2023/08/03 05:53:29;;;;;;;3.17;2.33;;;11.70;99.90;;;;;;5014185;28;20141;-93
2023/08/03 05:55:55;;;;;;;5.10;2.40;;;11.80;99.90;;;;;;5013877;28;20029;-94
2023/08/03 05:58:21;;;;;;;8.63;3.05;;;11.80;99.90;;;;;;5013228;28;20079;-94
2023/08/03 06:00:48;;;;;;;4.90;2.20;;;11.80;99.90;;;;;;5013187;28;20457;-94
2023/08/03 06:03:16;;;;;;;7.00;2.25;;;11.80;99.90;;;;;;5013067;28;20050;-94
2023/08/03 06:05:49;;;;;;;4.72;1.95;;;11.90;99.90;;;;;;5013176;28;20494;-95
2023/08/03 06:08:19;;;;;;;6.88;2.15;;;11.90;99.90;;;;;;5013391;28;20037;-95
2023/08/03 06:10:47;;;;;;;5.07;2.72;;;11.90;99.90;;;;;;5013002;28;20025;-94
2023/08/03 06:13:18;;;;;;;4.72;2.75;;;11.90;99.90;;;;;;5013054;28;20038;-94
2023/08/03 06:15:46;;;;;;;4.03;2.40;;;12.00;99.90;;;;;;5013165;28;20044;-95
2023/08/03 06:18:15;;;;;;;4.70;2.28;;;12.00;99.90;;;;;;5013300;28;20109;-94
2023/08/03 06:20:46;;;;;;;3.88;2.30;;;12.00;99.90;;;;;;5013261;28;20030;-95
2023/08/03 06:23:32;;;;;;;4.43;2.38;;;12.10;99.90;;;;;;5012906;28;20481;-92
2023/08/03 06:25:59;;;;;;;8.18;2.47;;;12.20;99.90;;;;;;5012826;28;20060;-93
2023/08/03 06:28:25;;;;;;;3.78;2.28;;;12.20;99.90;;;;;;5013265;28;20026;-94
2023/08/03 06:30:52;;;;;;;6.43;2.55;;;12.30;99.90;;;;;;5013226;28;20114;-94
2023/08/03 06:33:22;;;;;;;3.47;2.15;;;12.40;99.90;;;;;;5013502;28;20034;-92
2023/08/03 06:35:51;;;;;;;7.13;2.50;;;12.50;99.90;;;;;;5012804;28;20029;-93
2023/08/03 06:38:24;;;;;;;5.30;2.60;;;12.60;99.90;;;;;;5012829;28;20037;-93
2023/08/03 06:40:50;;;;;;;6.18;3.33;;;12.60;99.90;;;;;;5012528;28;20037;-93
2023/08/03 06:43:16;;;;;;;5.63;2.47;;;12.70;99.90;;;;;;5012686;28;20041;-93
2023/08/03 06:45:42;;;;;;;7.10;2.53;;;12.80;99.90;;;;;;5013290;28;20025;-92
2023/08/03 06:48:09;;;;;;;4.70;2.30;;;12.80;99.90;;;;;;5012965;28;20467;-92
2023/08/03 06:50:35;;;;;;;7.55;2.67;;;12.90;99.90;;;;;;5012884;28;20030;-92
2023/08/03 06:53:04;;;;;;;4.93;2.78;;;12.90;99.90;;;;;;5012777;28;20029;-93
2023/08/03 06:55:31;;;;;;;3.05;2.28;;;13.00;99.90;;;;;;5013003;28;20029;-92
2023/08/03 06:57:57;;;;;;;4.25;2.05;;;13.10;99.90;;;;;;5013766;28;20037;-93
2023/08/03 07:00:23;;;;;;;3.38;2.28;;;13.10;99.90;;;;;;5012649;28;20022;-93
2023/08/03 07:02:50;;;;;;;3.40;2.30;;;13.20;99.90;;;;;;5012851;28;20095;-93
2023/08/03 07:05:16;;;;;;;3.78;2.10;;;13.20;99.90;;;;;;5012456;28;20026;-93
2023/08/03 07:07:42;;;;;;;8.65;3.00;;;13.30;99.90;;;;;;5012631;28;20096;-93
2023/08/03 07:10:08;;;;;;;6.88;2.35;;;13.40;99.90;;;;;;5015118;28;20018;-92
2023/08/03 07:12:35;;;;;;;3.40;2.50;;;13.40;99.90;;;;;;5029590;28;20036;-93
2023/08/03 07:15:00;;;;;;;3.33;2.28;;;13.50;99.90;;;;;;5032841;28;20089;-92
2023/08/03 07:17:26;;;;;;;2.72;1.90;;;13.60;99.90;;;;;;5024480;28;20057;-93
2023/08/03 07:19:53;;;;;;;2.83;1.73;;;13.70;99.90;;;;;;5016045;28;20121;-93
2023/08/03 07:22:19;;;;;;;3.97;2.28;;;13.80;99.90;;;;;;5012613;28;20026;-93
2023/08/03 07:24:45;;;;;;;3.05;1.83;;;13.90;99.90;;;;;;5013012;28;20026;-93
2023/08/03 07:27:10;;;;;;;3.42;1.90;;;14.00;99.90;;;;;;5012260;28;20546;-93
2023/08/03 07:29:36;;;;;;;3.88;1.90;;;14.10;99.90;;;;;;5012390;28;20033;-94
2023/08/03 07:32:02;;;;;;;2.00;1.58;;;14.10;99.90;;;;;;5011982;28;20076;-93
2023/08/03 07:34:28;;;;;;;1.50;1.40;;;14.20;99.90;;;;;;5012351;28;20517;-92
2023/08/03 07:36:54;;;;;;;4.95;2.17;;;14.20;99.90;;;;;;5012381;28;20030;-94
2023/08/03 07:39:21;;;;;;;2.88;2.17;;;14.20;99.90;;;;;;5011957;28;20029;-94
2023/08/03 07:41:47;;;;;;;3.28;2.22;;;14.20;99.90;;;;;;5012354;28;20438;-92
2023/08/03 07:44:14;;;;;;;2.53;1.80;;;14.20;99.90;;;;;;5011996;28;20034;-93
2023/08/03 07:46:40;;;;;;;4.07;1.98;;;14.20;99.90;;;;;;5011822;28;20105;-93
2023/08/03 07:49:05;;;;;;;3.33;2.00;;;14.20;99.90;;;;;;5012108;28;20124;-92
2023/08/03 07:51:31;;;;;;;2.78;1.70;;;14.30;99.90;;;;;;5012158;28;20030;-93
2023/08/03 07:53:56;;;;;;;2.47;1.70;;;14.30;99.90;;;;;;5015077;28;20026;-93
2023/08/03 07:56:22;;;;;;;2.33;1.55;;;14.40;99.90;;;;;;5016468;28;20033;-93
2023/08/03 07:58:50;;;;;;;3.97;2.08;;;14.50;99.90;;;;;;5016766;28;20022;-92
2023/08/03 08:01:16;;;;;;;3.78;2.47;;;14.60;99.90;;;;;;5015879;28;20025;-93
2023/08/03 08:03:42;;;;;;;3.95;1.92;;;14.70;99.90;;;;;;5015727;28;20090;-93
2023/08/03 08:06:10;;;;;;;1.58;1.40;;;14.80;99.90;;;;;;5018703;28;20053;-93
2023/08/03 08:08:39;;;;;;;2.65;1.77;;;15.00;99.90;;;;;;5019908;28;20053;-94
2023/08/03 08:11:05;;;;;;;3.88;1.70;;;15.10;99.90;;;;;;5019330;28;20018;-94
2023/08/03 08:13:31;;;;;;;1.92;1.52;;;15.20;99.90;;;;;;5018855;28;20033;-93
2023/08/03 08:16:08;;;;;;;2.35;1.90;;;15.40;99.90;;;;;;5018885;28;20034;-94
2023/08/03 08:18:35;;;;;;;2.45;1.70;;;15.50;99.90;;;;;;5018356;28;20030;-94
2023/08/03 08:21:09;;;;;;;4.72;2.00;;;15.50;99.90;;;;;;5017295;28;20033;-93
2023/08/03 08:23:35;;;;;;;5.18;1.70;;;15.60;99.90;;;;;;5015747;28;20088;-94
2023/08/03 08:26:02;;;;;;;2.42;1.77;;;15.80;99.90;;;;;;5015379;28;20056;-94
2023/08/03 08:28:29;;;;;;;2.50;1.60;;;15.90;99.90;;;;;;5015018;28;20061;-94
2023/08/03 08:30:54;;;;;;;3.60;2.00;;;16.00;99.90;;;;;;5015184;28;20030;-94
2023/08/03 08:33:21;;;;;;;2.38;1.85;;;16.10;99.90;;;;;;5015567;28;20125;-94
2023/08/03 08:35:49;;;;;;;3.28;1.70;;;16.20;99.90;;;;;;5015078;28;20026;-94
2023/08/03 08:38:16;;;;;;;4.07;2.17;;;16.30;99.90;;;;;;5015172;28;20545;-94
2023/08/03 08:40:44;;;;;;;2.22;1.80;;;16.40;99.90;;;;;;5015031;28;20022;-94
2023/08/03 08:43:09;;;;;;;3.88;1.90;;;16.50;99.90;;;;;;5015169;28;20029;-93
2023/08/03 08:45:37;;;;;;;2.08;1.70;;;16.60;99.90;;;;;;5014896;28;20120;-93
2023/08/03 08:48:03;;;;;;;2.92;1.90;;;16.70;99.90;;;;;;5014715;28;20018;-93
2023/08/03 08:50:29;;;;;;;2.47;1.80;;;16.80;99.90;;;;;;5014486;28;20034;-94
2023/08/03 08:52:56;;;;;;;4.32;1.58;;;16.90;99.90;;;;;;5021280;28;20033;-93
2023/08/03 08:55:30;;;;;;;1.73;1.60;;;17.00;99.90;;;;;;5031600;28;20056;-93
2023/08/03 08:57:57;;;;;;;2.10;1.85;;;17.00;99.90;;;;;;5031510;28;20022;-94
2023/08/03 09:00:24;;;;;;;1.65;1.55;;;16.90;99.90;;;;;;5015923;28;20049;-93
2023/08/03 09:02:55;;;;;;;3.03;1.73;;;17.00;99.90;;;;;;5014731;28;20038;-94
2023/08/03 09:05:24;;;;;;;4.93;2.20;;;17.00;99.90;;;;;;5015386;28;20022;-93
2023/08/03 09:08:07;;;;;;;2.80;1.63;;;17.10;99.90;;;;;;5018440;28;20037;-94
2023/08/03 09:10:47;;;;;;;3.38;1.30;;;17.20;99.90;;;;;;5016433;28;20022;-95
2023/08/03 09:13:24;;;;;;;4.10;1.90;;;17.30;99.90;;;;;;5014740;28;20128;-94
2023/08/03 09:15:50;;;;;;;5.50;1.27;;;17.60;99.90;;;;;;5014080;28;20112;-95
2023/08/03 09:18:16;;;;;;;3.40;1.50;;;17.80;99.90;;;;;;5014300;28;20510;-94
2023/08/03 09:20:41;;;;;;;1.95;1.40;;;17.90;99.90;;;;;;5013736;28;20029;-95
2023/08/03 09:23:07;;;;;;;4.30;1.45;;;18.00;99.90;;;;;;5013902;28;20056;-95
2023/08/03 09:25:33;;;;;;;2.47;1.45;;;17.90;99.90;;;;;;5016594;28;20077;-96
2023/08/03 09:27:58;;;;;;;2.85;1.60;;;18.10;99.90;;;;;;5019151;28;20061;-95
2023/08/03 09:30:27;;;;;;;3.10;1.20;;;18.10;99.90;;;;;;5017596;28;20022;-96
2023/08/03 09:32:53;;;;;;;3.00;1.40;;;18.20;99.90;;;;;;5016607;28;20022;-95
2023/08/03 09:35:21;;;;;;;1.67;1.20;;;18.10;99.90;;;;;;5014479;28;20030;-95
2023/08/03 09:37:48;;;;;;;3.65;1.60;;;18.10;99.90;;;;;;5014130;28;20105;-95
2023/08/03 09:40:17;;;;;;;1.40;1.30;;;18.30;99.90;;;;;;5014151;28;20036;-95
2023/08/03 09:42:44;;;;;;;1.70;1.50;;;18.40;99.90;;;;;;5014874;28;20390;-95
2023/08/03 09:45:10;;;;;;;1.70;1.30;;;18.50;99.90;;;;;;5014316;28;20085;-94
2023/08/03 09:47:36;;;;;;;2.30;1.40;;;18.60;99.90;;;;;;5013785;28;20053;-96
2023/08/03 09:50:02;;;;;;;2.35;1.20;;;18.60;99.90;;;;;;5013653;28;20025;-96
2023/08/03 09:52:29;;;;;;;3.53;1.60;;;18.60;99.90;;;;;;5013718;28;20053;-95
2023/08/03 09:55:05;;;;;;;2.95;1.58;;;18.60;99.90;;;;;;5013929;28;20030;-95
2023/08/03 09:57:39;;;;;;;2.08;1.40;;;18.60;99.90;;;;;;5013816;28;20030;-96
2023/08/03 10:00:06;;;;;;;2.38;1.13;;;18.60;99.90;;;;;;5014077;28;20026;-96
2023/08/03 10:02:43;;;;;;;3.63;1.20;;;18.80;99.90;;;;;;5018583;28;20065;-95
2023/08/03 10:05:13;;;;;;;3.33;1.10;;;19.00;99.90;;;;;;5016529;28;20629;-95
2023/08/03 10:07:43;;;;;;;;;;;19.10;99.90;;;;;;5014767;28;20049;-95
2023/08/03 10:10:13;;;;;;;2.83;1.30;;;19.30;99.90;;;;;;5015018;28;19913;-95
2023/08/03 10:12:45;;;;;;;2.47;1.80;;;19.50;99.10;;;;;;5014474;28;20576;-94
2023/08/03 10:15:14;;;;;;;1.00;1.00;;;19.60;98.20;;;;;;5013437;28;20344;-96
2023/08/03 10:17:41;;;;;;;12.23;1.63;;;19.60;97.60;;;;;;5013744;28;20022;-95
2023/08/03 10:20:09;;;;;;;2.55;1.35;;;19.60;97.40;;;;;;5014123;28;20045;-96
2023/08/03 10:22:35;;;;;;;2.83;1.40;;;19.60;97.30;;;;;;5013072;28;20102;-95
2023/08/03 10:25:19;;;;;;;2.55;1.02;;;19.50;97.10;;;;;;5013380;28;20064;-95
2023/08/03 10:28:13;;;;;;;3.95;1.23;;;19.30;96.40;;;;;;5013885;28;20061;-95
2023/08/03 10:31:20;;;;;;;1.88;1.00;;;19.20;96.60;;;;;;5013929;28;20029;-95
2023/08/03 10:33:46;;;;;;;2.15;1.25;;;19.10;96.60;;;;;;4995019;28;20140;-95
2023/08/03 10:36:38;;;;;;;2.45;1.20;;;19.30;96.50;;;;;;5034737;28;20013;-95
2023/08/03 10:39:12;;;;;;;1.67;1.02;;;19.60;96.50;;;;;;5030225;28;20029;-96
2023/08/03 10:41:44;;;;;;;2.03;0.80;;;19.90;96.20;;;;;;5015237;28;20045;-96
2023/08/03 10:44:12;;;;;;;1.17;1.10;;;20.20;95.00;;;;;;5013663;28;20125;-96
2023/08/03 10:46:40;;;;;;;3.60;1.00;;;20.30;93.40;;;;;;5012994;28;20042;-96
2023/08/03 10:49:21;;;;;;;2.00;1.00;;;20.40;92.90;;;;;;5012906;28;20030;-95
2023/08/03 10:51:54;;;;;;;3.20;0.80;;;20.50;92.20;;;;;;5013058;28;20061;-94
2023/08/03 10:54:27;;;;;;;2.83;1.00;;;20.40;91.50;;;;;;5014346;28;20045;-94
2023/08/03 10:57:05;;;;;;;1.10;1.00;;;20.30;91.50;;;;;;5017500;28;20041;-95
2023/08/03 10:59:50;;;;;;;1.50;1.02;;;20.30;91.20;;;;;;5015080;28;20029;-95
2023/08/03 11:02:33;;;;;;;3.92;1.50;;;20.30;91.60;;;;;;5012546;28;20396;-95
2023/08/03 11:05:04;;;;;;;1.42;0.90;;;20.50;91.90;;;;;;5013146;28;20057;-95
2023/08/03 11:07:36;;;;;;;1.80;1.20;;;20.80;92.00;;;;;;5013880;28;20026;-94
2023/08/03 11:10:04;;;;;;;1.15;0.75;;;21.10;91.30;;;;;;5015582;28;20030;-95
2023/08/03 11:12:31;;;;;;;1.80;0.98;;;21.30;90.40;;;;;;5017663;28;20475;-95
2023/08/03 11:14:58;;;;;;;1.38;0.85;;;21.50;89.90;;;;;;5020056;28;20030;-94
2023/08/03 11:17:29;;;;;;;1.88;0.85;;;21.80;88.00;;;;;;5022090;28;20041;-95
2023/08/03 11:19:56;;;;;;;1.77;1.02;;;22.00;84.80;;;;;;5019365;28;20025;-96
2023/08/03 11:22:22;;;;;;;1.08;0.82;;;22.10;83.50;;;;;;5018956;28;20054;-95
2023/08/03 11:24:50;;;;;;;1.27;0.82;;;22.10;81.50;;;;;;5014749;28;20125;-95
2023/08/03 11:27:17;;;;;;;1.58;0.70;;;22.10;81.50;;;;;;5014069;28;20022;-94
2023/08/03 11:29:42;;;;;;;0.82;0.80;;;22.10;80.90;;;;;;5016605;28;20029;-94
2023/08/03 11:32:11;;;;;;;1.45;1.00;;;22.20;80.90;;;;;;5016542;28;20459;-94
2023/08/03 11:34:40;;;;;;;0.90;0.60;;;22.30;80.40;;;;;;5016572;28;20053;-93
2023/08/03 11:37:07;;;;;;;1.05;0.88;;;22.20;79.10;;;;;;5016327;28;20025;-94
2023/08/03 11:39:33;;;;;;;1.85;1.20;;;21.90;79.40;;;;;;5016519;28;20124;-94
2023/08/03 11:42:00;;;;;;;1.63;1.13;;;21.60;80.40;;;;;;5016147;28;20112;-93
2023/08/03 11:44:26;;;;;;;8.15;1.27;;;21.40;81.30;;;;;;5016523;28;20037;-94
2023/08/03 11:47:05;;;;;;;4.85;1.30;;;21.30;82.20;;;;;;5017028;28;20029;-94
2023/08/03 11:49:31;;;;;;;2.30;1.02;;;21.20;83.50;;;;;;5016339;28;20021;-94
2023/08/03 11:52:00;;;;;;;3.50;1.45;;;21.20;84.20;;;;;;5015965;28;20029;-94
2023/08/03 11:54:30;;;;;;;2.17;1.10;;;21.10;84.90;;;;;;5015503;28;20062;-95
2023/08/03 11:59:46;;;;;;;6.00;0.90;;;21.00;85.30;;;;;;5017043;28;20057;-94
2023/08/03 12:02:12;;;;;;;1.63;0.90;;;21.00;85.40;;;;;;5015496;28;20029;-96
2023/08/03 12:04:38;;;;;;;1.60;0.90;;;21.20;85.40;;;;;;5015314;28;20079;-94
2023/08/03 12:07:04;;;;;;;3.05;1.10;;;21.30;84.30;;;;;;5015845;28;20033;-94
2023/08/03 12:09:39;;;;;;;1.70;0.93;;;21.30;83.70;;;;;;5017283;28;20026;-94
2023/08/03 12:12:09;;;;;;;1.88;0.95;;;21.30;83.60;;;;;;5015748;28;20098;-95
2023/08/03 12:14:34;;;;;;;1.33;1.00;;;21.20;83.80;;;;;;5015486;28;20018;-93
2023/08/03 12:17:01;;;;;;;4.25;1.20;;;21.10;84.20;;;;;;5016505;28;20766;-94
2023/08/03 12:19:32;;;;;;;2.20;1.02;;;21.10;84.90;;;;;;5016229;28;20054;-95
2023/08/03 12:21:59;;;;;;;2.17;1.08;;;21.00;84.70;;;;;;5015643;28;20107;-94
2023/08/03 12:24:25;;;;;;;1.35;1.00;;;20.90;84.90;;;;;;5015025;28;20046;-95
2023/08/03 12:26:50;;;;;;;3.30;1.23;;;20.90;85.00;;;;;;5015380;28;20029;-95
2023/08/03 12:29:16;;;;;;;3.33;0.80;;;20.80;85.50;;;;;;5015395;28;20040;-94
2023/08/03 12:31:42;;;;;;;1.60;0.82;;;20.90;85.60;;;;;;5015062;28;20026;-95
2023/08/03 12:34:07;;;;;;;0.80;0.60;;;21.00;85.50;;;;;;5015158;28;20033;-94
2023/08/03 12:36:34;;;;;;;0.65;0.60;;;21.20;84.80;;;;;;5014751;28;20482;-96
2023/08/03 12:38:59;;;;;;;1.00;0.80;;;21.50;83.10;;;;;;5014136;28;20036;-96
2023/08/03 12:41:25;;;;;;;2.35;0.93;;;21.70;81.50;;;;;;5014953;28;20018;-94
2023/08/03 12:43:51;;;;;;;2.33;1.25;;;21.80;81.20;;;;;;5015179;28;20367;-95
2023/08/03 12:46:17;;;;;;;2.05;0.93;;;21.70;81.30;;;;;;5017528;28;20088;-95
2023/08/03 12:48:42;;;;;;;2.88;1.27;;;21.60;81.20;;;;;;5017976;28;20034;-95
2023/08/03 12:51:09;;;;;;;1.75;1.10;;;21.40;81.30;;;;;;5014632;28;20114;-94